Ebetsu, Japan
Current Conditions -  °F | °C
As of 8:30 AM on Tuesday 23 Dec 2014 (Local Time) from RJCC Reporting Station
Snow Showers Snow Showers  
Wind Chill: 16°   Ceiling: 5000
Heat Index: 23°   Visibility: 6mi
Dew Point: 12°   Wind: 6mph
Humidity: 63%   Direction: 180°S
Pressure: 29.8"   Gusts: NA
Location:  43.12°N, 141.55°E
Report Text: RJCC 222330Z 18005KT 9999 -SHSN FEW010 SCT030 BKN050 M05/M11 Q1009
Loading
Personal Weather Stations






























Interactive Weather Map New forecast layout! Learn more

10-Day Weather Forecast

Advertisements
Track Severe Weather on mobile